Time;durP1;ratioP1;P1;durP2;ratioP2;P2;SDS_P1;SDS_P2;PMS_P1;PMS_P2;Temp;Humidity;BMP_temperature;BMP_pressure;BME280_temperature;BME280_humidity;BME280_pressure;Samples;Min_cycle;Max_cycle;Signal;HPM_P1;HPM_P2
2021/11/04 00:00:30;;;;;;;36.13;13.13;;;;;;;8.45;82.68;99872.09;5090385;28;20114;-84
2021/11/04 00:02:56;;;;;;;34.92;14.35;;;;;;;8.17;82.80;99830.06;5075188;28;20051;-85
2021/11/04 00:05:24;;;;;;;31.95;14.07;;;;;;;8.39;83.21;99866.97;5074859;28;20109;-85
2021/11/04 00:10:22;;;;;;;36.15;14.95;;;;;;;8.31;82.91;99834.84;5076105;28;20097;-84
2021/11/04 00:12:49;;;;;;;34.63;13.98;;;;;;;8.31;82.72;99805.72;5062540;28;20036;-85
2021/11/04 00:15:16;;;;;;;33.33;14.00;;;;;;;8.56;82.57;99837.41;5038284;28;20502;-85
2021/11/04 00:17:42;;;;;;;30.95;14.25;;;;;;;8.45;82.82;99823.06;5037123;28;20040;-85
2021/11/04 00:20:11;;;;;;;32.25;14.57;;;;;;;8.51;82.64;99826.56;5065856;28;20044;-85
2021/11/04 00:22:38;;;;;;;34.60;14.27;;;;;;;8.53;82.59;99832.53;5074278;28;20059;-85
2021/11/04 00:25:05;;;;;;;26.25;13.23;;;;;;;8.41;82.37;99802.09;5057429;28;20044;-84
2021/11/04 00:27:31;;;;;;;31.05;14.98;;;;;;;8.57;82.35;99830.03;5074557;28;20040;-84
2021/11/04 00:29:58;;;;;;;42.08;16.08;;;;;;;8.43;82.43;99819.00;5057668;28;20039;-85
2021/11/04 00:32:24;;;;;;;;;;;;;;;8.60;82.41;99832.19;5074048;28;20398;-84
2021/11/04 00:34:51;;;;;;;39.47;15.55;;;;;;;8.57;82.38;99839.00;5074452;28;19991;-85
2021/11/04 00:37:17;;;;;;;31.80;15.07;;;;;;;8.58;82.27;99831.69;5041351;28;20135;-85
2021/11/04 00:39:44;;;;;;;37.88;17.35;;;;;;;8.62;82.50;99824.53;5057179;28;20562;-85
2021/11/04 00:42:10;;;;;;;37.97;17.05;;;;;;;8.64;82.07;99830.50;5056778;28;20055;-85
2021/11/04 00:44:36;;;;;;;35.33;14.85;;;;;;;8.59;82.27;99825.13;5075080;28;20048;-86
2021/11/04 00:47:03;;;;;;;40.85;16.60;;;;;;;8.42;82.11;99793.66;5059999;28;20047;-83
2021/11/04 00:49:32;;;;;;;41.97;17.45;;;;;;;8.51;82.10;99812.09;5080055;28;20021;-84
2021/11/04 00:51:58;;;;;;;35.83;16.83;;;;;;;8.55;82.16;99813.97;5063602;28;20035;-84
2021/11/04 00:54:26;;;;;;;39.60;16.77;;;;;;;8.65;81.88;99823.97;5096004;28;20036;-84
2021/11/04 00:56:52;;;;;;;37.63;16.77;;;;;;;8.66;81.61;99820.94;5086443;28;20048;-84
2021/11/04 00:59:18;;;;;;;35.05;15.65;;;;;;;8.43;81.61;99799.91;5073313;28;20056;-85
2021/11/04 01:01:44;;;;;;;38.08;15.88;;;;;;;8.49;81.89;99806.94;5073482;28;20513;-84
2021/11/04 01:04:13;;;;;;;38.30;16.13;;;;;;;8.61;81.69;99823.75;5072966;28;20033;-84
2021/11/04 01:06:40;;;;;;;36.33;15.60;;;;;;;8.73;81.71;99836.97;5073953;28;20036;-85
2021/11/04 01:09:07;;;;;;;;;;;;;;;8.79;81.60;99835.81;5055789;28;20044;-85
2021/11/04 01:11:33;;;;;;;39.00;14.53;;;;;;;8.79;81.38;99835.81;5039011;28;19927;-84
2021/11/04 01:14:01;;;;;;;32.42;15.85;;;;;;;8.74;81.35;99822.25;5055536;28;20040;-84
2021/11/04 01:16:28;;;;;;;30.15;15.32;;;;;;;8.73;81.26;99822.53;5072637;28;20044;-85
2021/11/04 01:18:56;;;;;;;31.77;14.82;;;;;;;8.78;81.35;99833.41;5074133;28;20124;-84
2021/11/04 01:21:22;;;;;;;34.33;16.40;;;;;;;8.76;81.52;99827.41;5054041;28;20043;-84
2021/11/04 01:23:49;;;;;;;;;;;;;;;8.78;81.52;99833.41;5072635;28;20421;-85
2021/11/04 01:26:15;;;;;;;29.50;14.50;;;;;;;8.70;81.74;99841.06;5054917;28;19969;-85
2021/11/04 01:28:44;;;;;;;33.78;16.63;;;;;;;8.63;82.05;99826.97;5055325;28;20497;-85
2021/11/04 01:31:10;;;;;;;33.17;15.57;;;;;;;8.61;81.83;99823.75;5054870;28;20413;-85
2021/11/04 01:33:36;;;;;;;32.60;16.30;;;;;;;8.66;82.05;99823.69;5071768;28;20382;-84
2021/11/04 01:36:04;;;;;;;40.05;17.27;;;;;;;8.57;82.19;99811.75;5071723;28;20056;-84
2021/11/04 01:38:33;;;;;;;38.88;17.65;;;;;;;8.73;81.63;99825.25;5088868;28;20056;-85
2021/11/04 01:40:59;;;;;;;37.92;17.52;;;;;;;8.74;81.83;99830.44;5072735;28;20052;-84
2021/11/04 01:43:27;;;;;;;37.45;17.60;;;;;;;8.66;82.20;99825.59;5071556;28;20044;-85
2021/11/04 01:45:53;;;;;;;;;;;;;;;8.73;82.24;99841.59;5051160;28;20568;-84
2021/11/04 01:48:22;;;;;;;37.58;16.45;;;;;;;8.62;82.49;99832.72;5051300;28;19971;-84
2021/11/04 01:50:49;;;;;;;38.10;16.85;;;;;;;8.75;82.33;99847.59;5054762;28;20040;-84
2021/11/04 01:53:20;;;;;;;42.83;17.15;;;;;;;8.68;82.58;99840.56;5071876;28;20036;-84
2021/11/04 01:55:47;;;;;;;41.08;18.63;;;;;;;8.63;82.52;99834.34;5054943;28;20469;-87
2021/11/04 01:58:14;;;;;;;;;;;;;;;8.74;82.67;99843.22;5072592;28;20067;-85
2021/11/04 02:00:42;;;;;;;41.45;18.88;;;;;;;8.63;82.66;99821.53;5072413;28;19920;-83
2021/11/04 02:03:42;;;;;;;39.13;16.60;;;;;;;8.78;82.67;99838.84;5071275;28;20036;-83
2021/11/04 02:06:17;;;;;;;41.25;18.17;;;;;;;8.80;82.53;99839.34;5045314;28;20047;-83
2021/11/04 02:08:52;;;;;;;46.53;19.38;;;;;;;8.73;82.73;99828.78;5070497;28;20044;-83
2021/11/04 02:11:23;;;;;;;44.60;18.20;;;;;;;8.78;82.58;99827.94;5072525;28;20036;-83
2021/11/04 02:14:01;;;;;;;45.75;20.58;;;;;;;8.89;82.79;99846.63;5071807;28;20074;-83
2021/11/04 02:16:30;;;;;;;48.10;19.75;;;;;;;8.88;82.81;99849.66;5053982;28;20041;-82
2021/11/04 02:19:04;;;;;;;47.95;19.83;;;;;;;8.84;82.82;99845.84;5071570;28;20064;-83
2021/11/04 02:21:39;;;;;;;46.50;20.38;;;;;;;8.86;83.05;99849.91;5059553;28;20452;-83
2021/11/04 02:24:09;;;;;;;53.10;21.55;;;;;;;8.88;83.26;99842.28;5072299;28;20040;-83
2021/11/04 02:26:37;;;;;;;53.88;20.77;;;;;;;8.92;83.20;99847.97;5070337;28;20037;-84
2021/11/04 02:29:06;;;;;;;45.33;20.73;;;;;;;8.89;83.16;99840.34;5069604;28;20032;-83
2021/11/04 02:31:34;;;;;;;51.88;21.42;;;;;;;8.89;83.17;99843.88;5072533;28;20497;-83
2021/11/04 02:34:04;;;;;;;61.33;23.77;;;;;;;8.92;83.19;99828.88;5041485;28;20043;-83
2021/11/04 02:36:33;;;;;;;66.15;24.85;;;;;;;9.06;83.05;99851.63;5057957;28;20036;-83
2021/11/04 02:39:00;;;;;;;80.13;27.50;;;;;;;9.02;82.99;99842.38;5075838;28;20048;-84
2021/11/04 02:41:31;;;;;;;89.18;31.73;;;;;;;8.96;82.94;99831.81;5075555;28;20275;-83
2021/11/04 02:44:01;;;;;;;102.90;33.88;;;;;;;9.20;82.98;99862.63;5074940;28;20048;-83
2021/11/04 02:46:31;;;;;;;106.47;34.00;;;;;;;9.07;82.72;99839.63;5041975;28;20037;-83
2021/11/04 02:48:57;;;;;;;103.85;34.65;;;;;;;9.13;82.90;99843.09;5054792;28;20068;-83
2021/11/04 02:51:23;;;;;;;87.18;31.00;;;;;;;9.17;82.61;99846.84;5057719;28;20543;-83
2021/11/04 02:53:49;;;;;;;86.43;30.17;;;;;;;9.23;82.88;99863.97;5074434;28;20582;-83
2021/11/04 02:56:15;;;;;;;87.68;29.98;;;;;;;9.26;82.92;99872.38;5041469;28;20044;-83
2021/11/04 02:58:43;;;;;;;85.28;28.20;;;;;;;9.27;83.11;99870.47;5057014;28;20101;-83
2021/11/04 03:01:10;;;;;;;76.95;26.33;;;;;;;9.30;82.99;99867.97;5057116;28;20417;-83
2021/11/04 03:03:36;;;;;;;79.00;26.60;;;;;;;9.25;82.83;99853.59;5074021;28;20040;-83
2021/11/04 03:06:02;;;;;;;53.58;21.23;;;;;;;9.25;83.03;99864.50;5075436;28;20051;-83
2021/11/04 03:08:30;;;;;;;51.97;22.52;;;;;;;9.29;83.38;99871.81;5074855;28;20048;-83
2021/11/04 03:10:56;;;;;;;48.75;21.90;;;;;;;9.27;83.28;99870.47;5055362;28;20096;-83
2021/11/04 03:13:24;;;;;;;55.88;21.98;;;;;;;9.29;83.33;99871.00;5055640;28;20056;-82
2021/11/04 03:15:57;;;;;;;55.25;21.20;;;;;;;9.27;83.29;99874.03;5073882;28;20574;-82
2021/11/04 03:18:24;;;;;;;65.28;22.05;;;;;;;9.22;83.31;99859.63;5041197;28;20044;-83
2021/11/04 03:20:53;;;;;;;47.50;19.95;;;;;;;9.22;83.27;99865.91;5073687;28;20044;-84
2021/11/04 03:23:20;;;;;;;53.63;22.15;;;;;;;9.27;83.30;99870.47;5055313;28;20041;-83
2021/11/04 03:25:47;;;;;;;56.67;23.42;;;;;;;9.36;83.21;99882.38;5027319;28;20060;-82
2021/11/04 03:28:16;;;;;;;51.85;22.70;;;;;;;9.34;83.02;99885.41;5074160;28;20044;-82
2021/11/04 03:30:43;;;;;;;54.70;22.40;;;;;;;9.22;83.01;99862.38;5074506;28;20048;-82
2021/11/04 03:33:10;;;;;;;59.67;22.45;;;;;;;9.22;82.99;99859.63;5075139;28;20040;-83
2021/11/04 03:35:37;;;;;;;;;;;;;;;9.33;82.93;99889.22;5059528;28;20131;-83
2021/11/04 03:38:09;;;;;;;65.55;22.50;;;;;;;9.29;82.96;99884.66;5090059;28;19911;-82
2021/11/04 03:40:36;;;;;;;59.45;21.73;;;;;;;9.33;83.10;99893.88;5094225;28;20049;-83
2021/11/04 03:43:06;;;;;;;55.40;22.08;;;;;;;9.35;83.12;99900.66;5084429;28;20056;-83
2021/11/04 03:45:33;;;;;;;58.25;22.42;;;;;;;9.20;82.77;99883.66;5074623;28;20045;-83
2021/11/04 03:48:00;;;;;;;65.13;22.52;;;;;;;9.32;82.98;99903.16;5074704;28;20036;-83
2021/11/04 03:50:28;;;;;;;55.23;23.27;;;;;;;9.24;82.86;99893.72;5072709;28;20127;-84
2021/11/04 03:52:55;;;;;;;55.97;23.00;;;;;;;9.06;82.87;99870.69;5074560;28;20515;-83
2021/11/04 03:55:25;;;;;;;58.50;23.30;;;;;;;9.23;83.26;99910.34;5073441;28;20063;-83
2021/11/04 03:57:54;;;;;;;60.88;23.67;;;;;;;8.94;83.09;99873.03;5072742;28;20533;-83
2021/11/04 04:00:21;;;;;;;63.20;23.67;;;;;;;9.02;83.03;99891.47;5072543;28;20109;-82
2021/11/04 04:02:49;;;;;;;61.75;24.13;;;;;;;9.16;82.95;99922.41;5055761;28;20051;-84
2021/11/04 04:05:16;;;;;;;67.22;24.92;;;;;;;9.02;82.99;99894.19;5039641;28;20036;-83
2021/11/04 04:07:42;;;;;;;;;;;;;;;9.14;82.92;99921.09;5074507;28;20040;-83
2021/11/04 04:10:09;;;;;;;62.67;24.10;;;;;;;9.05;82.91;99907.25;5072731;28;19939;-83
2021/11/04 04:12:36;;;;;;;70.70;23.45;;;;;;;9.09;82.96;99927.41;5074510;28;20048;-83
2021/11/04 04:15:03;;;;;;;78.70;25.02;;;;;;;9.06;82.86;99932.63;5074808;28;20055;-83
2021/11/04 04:17:29;;;;;;;73.90;25.25;;;;;;;9.02;82.62;99934.31;5073985;28;20139;-83
2021/11/04 04:19:55;;;;;;;75.35;25.92;;;;;;;8.93;82.95;99934.09;5072210;28;20123;-83
2021/11/04 04:22:23;;;;;;;71.38;24.92;;;;;;;8.78;82.67;99923.34;5073677;28;20044;-83
2021/11/04 04:24:49;;;;;;;71.10;24.85;;;;;;;8.87;82.69;99937.97;5055933;28;20040;-83
2021/11/04 04:27:15;;;;;;;80.15;25.08;;;;;;;8.83;82.52;99945.91;5072118;28;20075;-83
2021/11/04 04:29:43;;;;;;;76.95;23.70;;;;;;;8.74;82.92;99936.75;5038851;28;20717;-83
2021/11/04 04:32:09;;;;;;;77.75;24.80;;;;;;;8.66;82.85;99927.25;5071997;28;20037;-83
2021/11/04 04:34:36;;;;;;;67.00;22.63;;;;;;;8.78;82.95;99956.88;5072509;28;20497;-83
2021/11/04 04:37:04;;;;;;;65.53;23.02;;;;;;;8.77;82.96;99947.03;5072212;28;20059;-83
2021/11/04 04:39:32;;;;;;;67.70;23.50;;;;;;;8.72;82.94;99930.75;5073331;28;20048;-83
2021/11/04 04:42:00;;;;;;;75.32;24.75;;;;;;;8.82;83.11;99940.75;5061558;28;20417;-83
2021/11/04 04:44:27;;;;;;;67.33;22.80;;;;;;;8.83;82.75;99942.38;5071990;28;20131;-83
2021/11/04 04:46:54;;;;;;;68.45;25.27;;;;;;;8.91;82.67;99953.50;5073351;28;20123;-83
2021/11/04 04:49:20;;;;;;;66.53;23.70;;;;;;;8.93;82.51;99959.44;5072956;28;20127;-83
2021/11/04 04:51:46;;;;;;;65.38;24.00;;;;;;;9.00;82.37;99959.13;5072612;28;20120;-85
2021/11/04 04:54:12;;;;;;;67.57;23.55;;;;;;;8.95;82.08;99945.53;5073524;28;20489;-83
2021/11/04 04:56:39;;;;;;;69.33;23.07;;;;;;;8.91;82.04;99939.84;5072796;28;20098;-83
2021/11/04 04:59:05;;;;;;;66.78;23.35;;;;;;;8.96;81.90;99957.25;5072787;28;20044;-83
2021/11/04 05:01:32;;;;;;;63.50;22.13;;;;;;;8.96;81.75;99946.34;5072514;28;20037;-82
2021/11/04 05:03:58;;;;;;;59.65;22.45;;;;;;;8.96;81.97;99944.44;5051085;28;20104;-83
2021/11/04 05:06:25;;;;;;;67.55;25.55;;;;;;;9.02;81.92;99965.09;5072551;28;20115;-83
2021/11/04 05:08:51;;;;;;;84.53;28.47;;;;;;;9.11;81.91;99979.75;5038730;28;20036;-83
2021/11/04 05:11:17;;;;;;;72.43;26.65;;;;;;;9.20;81.55;99981.84;5072313;28;20079;-83
2021/11/04 05:13:43;;;;;;;64.90;22.98;;;;;;;9.18;81.40;99991.16;5038106;28;20174;-83
2021/11/04 05:16:11;;;;;;;71.78;26.52;;;;;;;9.23;81.30;99986.75;5055077;28;20533;-83
2021/11/04 05:18:37;;;;;;;79.13;25.48;;;;;;;9.24;81.26;99991.91;5072877;28;20394;-83
2021/11/04 05:21:03;;;;;;;69.20;23.80;;;;;;;9.16;80.96;99990.59;5070700;28;20051;-83
2021/11/04 05:23:29;;;;;;;64.10;23.92;;;;;;;9.30;80.74;100001.66;5071332;28;20060;-83
2021/11/04 05:25:55;;;;;;;70.10;24.10;;;;;;;9.16;80.63;99979.69;5056648;28;20069;-84
2021/11/04 05:28:21;;;;;;;62.03;21.98;;;;;;;9.32;80.62;99995.94;5090039;28;20413;-82
2021/11/04 05:30:48;;;;;;;59.05;22.17;;;;;;;9.39;80.21;100010.84;5088832;28;20048;-83
2021/11/04 05:33:15;;;;;;;55.83;21.30;;;;;;;9.40;80.07;100014.41;5073600;28;20040;-84
2021/11/04 05:35:42;;;;;;;58.40;21.95;;;;;;;9.26;80.07;99988.91;5074055;28;20055;-83
2021/11/04 05:38:08;;;;;;;60.30;22.23;;;;;;;9.42;79.82;100006.75;5091014;28;20532;-83
2021/11/04 05:40:36;;;;;;;62.25;23.13;;;;;;;9.45;79.85;100022.53;5089916;28;20035;-83
2021/11/04 05:43:03;;;;;;;54.45;20.98;;;;;;;9.40;79.50;100011.66;5056051;28;20047;-84
2021/11/04 05:45:31;;;;;;;50.78;19.85;;;;;;;9.42;79.15;100017.66;5073342;28;20457;-83
2021/11/04 05:47:57;;;;;;;58.63;22.00;;;;;;;9.35;79.15;99995.34;5089420;28;20055;-83
2021/11/04 05:50:26;;;;;;;58.53;21.42;;;;;;;9.40;79.12;100011.66;5072502;28;20056;-83
2021/11/04 05:52:52;;;;;;;67.17;22.20;;;;;;;9.29;78.81;99997.31;5039191;28;20048;-83
2021/11/04 05:55:18;;;;;;;63.92;23.33;;;;;;;9.30;79.03;100000.84;5072716;28;20068;-83
2021/11/04 05:57:44;;;;;;;71.63;22.70;;;;;;;9.46;79.05;100026.88;5038620;28;20421;-84
2021/11/04 06:00:11;;;;;;;60.08;22.00;;;;;;;9.44;79.00;100031.00;5068175;28;20332;-83
2021/11/04 06:02:40;;;;;;;60.95;22.95;;;;;;;9.26;79.06;100008.00;5064742;28;20477;-85
2021/11/04 06:05:07;;;;;;;72.00;25.48;;;;;;;9.42;78.74;100042.22;5066459;28;20033;-81
2021/11/04 06:07:32;;;;;;;67.38;24.27;;;;;;;9.40;78.92;100042.53;5050469;28;20498;-83
2021/11/04 06:10:02;;;;;;;60.60;24.15;;;;;;;9.32;78.52;100032.22;5051267;28;20536;-81
2021/11/04 06:12:28;;;;;;;64.10;23.08;;;;;;;9.38;78.54;100047.44;5050852;28;20185;-81
2021/11/04 06:14:54;;;;;;;62.10;22.88;;;;;;;9.30;78.70;100034.41;5049719;28;20077;-80
2021/11/04 06:17:20;;;;;;;68.32;24.70;;;;;;;9.38;78.50;100044.72;5044220;28;20497;-82
2021/11/04 06:19:47;;;;;;;63.03;22.73;;;;;;;9.31;78.02;100037.97;5069255;28;20052;-83
2021/11/04 06:22:13;;;;;;;64.10;22.50;;;;;;;9.40;78.27;100047.13;5069111;28;20410;-82
2021/11/04 06:24:40;;;;;;;63.42;24.05;;;;;;;9.35;78.05;100049.94;5052582;28;20090;-81
2021/11/04 06:27:06;;;;;;;64.82;23.83;;;;;;;9.51;78.14;100067.78;5070397;28;20067;-81
2021/11/04 06:29:33;;;;;;;68.07;25.05;;;;;;;9.55;77.94;100077.03;5070111;28;20117;-83
2021/11/04 06:31:59;;;;;;;59.83;23.23;;;;;;;9.45;77.71;100057.22;5052999;28;20040;-82
2021/11/04 06:34:25;;;;;;;63.97;23.60;;;;;;;9.56;77.60;100065.00;5068791;28;20060;-83
2021/11/04 06:36:51;;;;;;;66.85;22.52;;;;;;;9.67;77.50;100079.38;5070100;28;20412;-81
2021/11/04 06:39:18;;;;;;;42.80;18.40;;;;;;;9.58;77.07;100071.00;5069785;28;20043;-81
2021/11/04 06:41:44;;;;;;;63.22;23.90;;;;;;;9.60;77.18;100077.00;5070342;28;20045;-81
2021/11/04 06:44:10;;;;;;;59.88;24.85;;;;;;;9.63;77.05;100083.78;5068721;28;20036;-84
2021/11/04 06:46:40;;;;;;;59.67;22.65;;;;;;;9.67;76.57;100084.84;5052898;28;20170;-83
2021/11/04 06:49:08;;;;;;;63.25;23.00;;;;;;;9.70;76.30;100091.63;5052113;28;20037;-83
2021/11/04 06:51:41;;;;;;;55.80;22.05;;;;;;;9.70;76.78;100091.63;5068924;28;20051;-80
2021/11/04 06:54:10;;;;;;;54.63;21.33;;;;;;;9.69;76.33;100087.28;5070028;28;20029;-80
2021/11/04 06:56:45;;;;;;;58.25;21.83;;;;;;;9.68;75.70;100091.13;5068161;28;20041;-80
2021/11/04 06:59:20;;;;;;;62.63;21.42;;;;;;;9.74;75.57;100088.03;5067845;28;20048;-80
2021/11/04 07:01:53;;;;;;;59.03;22.90;;;;;;;9.86;75.38;100090.38;5070325;28;20379;-80
2021/11/04 07:04:41;;;;;;;62.92;21.25;;;;;;;9.82;74.83;100079.22;5080091;28;20037;-80
2021/11/04 07:07:12;;;;;;;55.75;21.73;;;;;;;9.92;74.46;100100.16;5083791;28;20040;-79
2021/11/04 07:09:41;;;;;;;57.83;19.65;;;;;;;9.92;75.43;100105.59;5085364;28;20051;-81
2021/11/04 07:12:10;;;;;;;53.20;21.23;;;;;;;9.90;74.61;100107.84;5084221;28;20059;-82
2021/11/04 07:14:39;;;;;;;59.38;22.27;;;;;;;9.93;74.40;100101.75;5081150;28;20562;-80
2021/11/04 07:17:06;;;;;;;51.78;20.35;;;;;;;9.94;73.85;100117.06;5066407;28;20605;-80
2021/11/04 07:19:33;;;;;;;58.05;21.67;;;;;;;9.77;73.85;100090.22;5071434;28;20047;-80
2021/11/04 07:22:22;;;;;;;57.80;21.30;;;;;;;9.88;73.96;100116.28;5069118;28;20036;-81
2021/11/04 07:25:11;;;;;;;53.40;20.48;;;;;;;9.87;74.42;100119.31;5074471;28;20076;-79
2021/11/04 07:27:43;;;;;;;55.03;21.23;;;;;;;9.97;74.43;100127.41;5073816;28;20044;-79
2021/11/04 07:30:17;;;;;;;62.47;21.40;;;;;;;9.91;74.18;100109.44;5056243;28;20036;-79
2021/11/04 07:32:52;;;;;;;62.75;23.25;;;;;;;9.95;74.29;100121.41;5082635;28;20070;-81
2021/11/04 07:35:46;;;;;;;62.00;21.95;;;;;;;9.89;74.13;100128.03;5070207;28;20040;-80
2021/11/04 07:38:14;;;;;;;60.08;21.85;;;;;;;9.92;74.49;100135.66;5079275;28;20086;-74
2021/11/04 07:40:41;;;;;;;61.30;21.80;;;;;;;9.97;74.35;100130.16;5068451;28;20044;-72
2021/11/04 07:43:08;;;;;;;58.03;21.90;;;;;;;10.02;74.24;100138.28;5072888;28;20090;-80
2021/11/04 07:45:34;;;;;;;59.42;21.55;;;;;;;9.95;73.99;100126.88;5054969;28;20783;-79
2021/11/04 07:48:01;;;;;;;;;;;;;;;10.06;73.92;100139.31;5073378;28;20040;-72
2021/11/04 07:50:29;;;;;;;53.00;19.80;;;;;;;10.05;73.39;100139.63;5070656;28;19949;-71
2021/11/04 07:52:56;;;;;;;49.53;18.88;;;;;;;10.02;73.26;100146.47;5072640;28;20045;-71
2021/11/04 07:55:23;;;;;;;46.47;18.80;;;;;;;10.04;72.88;100144.28;5072293;28;20123;-71
2021/11/04 07:57:49;;;;;;;42.08;15.95;;;;;;;10.00;72.11;100143.22;5072072;28;20505;-71
2021/11/04 08:00:21;;;;;;;51.00;20.15;;;;;;;10.03;72.95;100158.22;5070231;28;20053;-71
2021/11/04 08:02:49;;;;;;;52.20;19.00;;;;;;;10.05;72.67;100156.00;5069249;28;20029;-73
2021/11/04 08:05:19;;;;;;;46.60;17.67;;;;;;;10.15;72.32;100152.38;5073200;28;20033;-74
2021/11/04 08:07:47;;;;;;;48.03;18.88;;;;;;;10.19;71.53;100156.13;5072784;28;20045;-74
2021/11/04 08:10:15;;;;;;;51.22;17.95;;;;;;;10.21;71.29;100154.75;5069412;28;20527;-71
2021/11/04 08:12:41;;;;;;;46.28;19.13;;;;;;;10.28;70.85;100168.91;5069093;28;20038;-70
2021/11/04 08:15:09;;;;;;;42.40;17.00;;;;;;;10.31;70.17;100164.78;5069719;28;20036;-70
2021/11/04 08:17:35;;;;;;;41.45;17.27;;;;;;;10.34;71.00;100158.75;5070321;28;20119;-69
2021/11/04 08:20:06;;;;;;;45.30;17.52;;;;;;;10.45;70.46;100159.44;5070569;28;20044;-72
2021/11/04 08:22:35;;;;;;;39.88;14.88;;;;;;;10.61;69.46;100171.81;5070694;28;20036;-80
2021/11/04 08:25:04;;;;;;;41.53;17.83;;;;;;;10.75;69.69;100166.44;5070360;28;20047;-74
2021/11/04 08:27:35;;;;;;;49.38;18.13;;;;;;;10.80;69.23;100155.44;5070798;28;20417;-72
2021/11/04 08:30:02;;;;;;;39.13;16.50;;;;;;;10.91;68.87;100162.41;5071179;28;20041;-81
2021/11/04 08:32:29;;;;;;;38.33;15.23;;;;;;;10.82;68.14;100162.22;5069782;28;20078;-72
2021/11/04 08:34:55;;;;;;;42.25;16.50;;;;;;;10.77;67.93;100169.72;5071222;28;20068;-72
2021/11/04 08:37:23;;;;;;;42.65;17.83;;;;;;;10.69;67.81;100173.88;5070142;28;20497;-75
2021/11/04 08:39:50;;;;;;;38.87;16.23;;;;;;;10.47;67.80;100181.84;5066710;28;20036;-70
2021/11/04 08:42:16;;;;;;;47.87;16.53;;;;;;;10.41;67.79;100174.78;5048158;28;20040;-73
2021/11/04 08:44:42;;;;;;;39.20;15.37;;;;;;;10.35;67.97;100187.69;5069149;28;20040;-70
2021/11/04 08:47:09;;;;;;;38.60;15.45;;;;;;;10.24;67.61;100180.69;5070436;28;20111;-72
2021/11/04 08:49:36;;;;;;;36.38;15.45;;;;;;;10.22;68.45;100189.16;5070117;28;20039;-74
2021/11/04 08:52:07;;;;;;;39.17;17.25;;;;;;;10.23;68.63;100192.69;5070356;28;20029;-79
2021/11/04 08:54:34;;;;;;;38.40;16.48;;;;;;;10.18;68.63;100193.56;5069394;28;20056;-74
2021/11/04 08:57:02;;;;;;;39.60;16.08;;;;;;;10.11;68.43;100198.56;5070109;28;20516;-77
2021/11/04 08:59:31;;;;;;;37.83;15.35;;;;;;;10.02;68.77;100186.63;5070260;28;20110;-85
2021/11/04 09:01:57;;;;;;;36.75;15.70;;;;;;;10.11;68.49;100206.78;5070105;28;20405;-80
2021/11/04 09:04:24;;;;;;;44.20;17.63;;;;;;;10.14;68.67;100203.47;5069175;28;20127;-78
2021/11/04 09:06:54;;;;;;;41.28;14.73;;;;;;;10.01;68.47;100202.22;5069081;28;20036;-76
2021/11/04 09:09:21;;;;;;;39.72;16.40;;;;;;;9.91;69.07;100209.69;5068902;28;20047;-75
2021/11/04 09:11:47;;;;;;;39.80;16.33;;;;;;;9.86;69.73;100216.81;5068858;28;20524;-74
2021/11/04 09:14:16;;;;;;;46.97;16.38;;;;;;;9.78;70.01;100209.25;5068236;28;20509;-77
2021/11/04 09:16:42;;;;;;;34.58;14.73;;;;;;;9.91;69.78;100228.81;5067782;28;20123;-75
2021/11/04 09:19:08;;;;;;;41.30;15.85;;;;;;;10.01;69.54;100223.25;5068229;28;20037;-78
2021/11/04 09:21:34;;;;;;;42.72;15.63;;;;;;;10.08;69.63;100221.81;5067847;28;20043;-78
2021/11/04 09:24:02;;;;;;;36.47;16.08;;;;;;;10.27;69.44;100235.63;5067834;28;20040;-73
2021/11/04 09:26:29;;;;;;;42.92;16.83;;;;;;;10.25;68.96;100231.50;5066271;28;20036;-77
2021/11/04 09:28:55;;;;;;;;;;;;;;;10.38;69.23;100252.72;5065291;28;20032;-76
2021/11/04 09:31:21;;;;;;;35.77;13.80;;;;;;;10.39;68.22;100248.88;5065996;28;20007;-72
2021/11/04 09:33:48;;;;;;;40.67;15.25;;;;;;;10.48;68.12;100243.59;5065310;28;20421;-81
2021/11/04 09:36:14;;;;;;;35.80;14.15;;;;;;;10.52;67.30;100252.84;5064862;28;20028;-79
2021/11/04 09:38:42;;;;;;;40.28;16.13;;;;;;;10.54;67.76;100250.66;5065011;28;20162;-75
2021/11/04 09:41:08;;;;;;;41.47;15.05;;;;;;;10.53;67.64;100247.09;5066051;28;20186;-76
2021/11/04 09:43:37;;;;;;;39.20;14.20;;;;;;;10.49;67.84;100243.28;5064880;28;20040;-76
2021/11/04 09:46:03;;;;;;;41.33;15.55;;;;;;;10.46;67.39;100237.59;5064166;28;20044;-79
2021/11/04 09:48:31;;;;;;;36.35;14.15;;;;;;;10.57;67.35;100253.63;5065756;28;20071;-76
2021/11/04 09:50:57;;;;;;;37.53;14.43;;;;;;;10.56;67.18;100252.00;5066117;28;20044;-85
2021/11/04 09:53:24;;;;;;;;;;;;;;;10.70;67.17;100257.59;5066046;28;20040;-81
2021/11/04 09:55:50;;;;;;;31.58;13.10;;;;;;;10.61;66.85;100242.09;5065918;28;19920;-82
2021/11/04 09:58:17;;;;;;;38.92;14.73;;;;;;;10.71;66.57;100250.19;5064982;28;20033;-91
2021/11/04 10:00:43;;;;;;;41.30;14.73;;;;;;;10.81;66.80;100269.22;5046745;28;20052;-80
2021/11/04 10:03:15;;;;;;;36.42;13.60;;;;;;;10.85;66.52;100272.19;5063814;28;20071;-80
2021/11/04 10:05:48;;;;;;;34.35;14.43;;;;;;;10.84;66.06;100276.03;5061809;28;20051;-79
2021/11/04 10:08:16;;;;;;;37.42;15.75;;;;;;;10.84;66.79;100270.56;5063481;28;20036;-77
2021/11/04 10:10:45;;;;;;;32.10;14.20;;;;;;;10.96;65.81;100279.16;5062358;28;20037;-78
2021/11/04 10:13:13;;;;;;;36.90;13.95;;;;;;;11.05;65.98;100271.94;5063212;28;20028;-80
2021/11/04 10:15:41;;;;;;;37.25;13.88;;;;;;;11.00;65.19;100263.81;5061818;28;20040;-81
2021/11/04 10:18:14;;;;;;;33.03;14.82;;;;;;;11.18;65.50;100284.91;5062353;28;20037;-76
2021/11/04 10:20:41;;;;;;;33.90;15.00;;;;;;;11.24;65.49;100283.72;5061848;28;20052;-79
2021/11/04 10:23:12;;;;;;;68.32;21.02;;;;;;;11.16;65.32;100278.94;5061893;28;20036;-76
2021/11/04 10:25:39;;;;;;;50.03;16.27;;;;;;;11.02;64.71;100262.38;5060521;28;20470;-76
2021/11/04 10:28:24;;;;;;;100.72;34.03;;;;;;;11.04;64.80;100282.06;5060718;28;20048;-76
2021/11/04 10:30:52;;;;;;;162.30;61.07;;;;;;;10.93;65.12;100264.16;5061092;28;20035;-78
2021/11/04 10:33:25;;;;;;;69.70;32.75;;;;;;;10.99;65.42;100290.34;5059800;28;20033;-82
2021/11/04 10:35:54;;;;;;;69.97;31.58;;;;;;;10.84;65.28;100285.03;5061470;28;20502;-78
2021/11/04 10:38:20;;;;;;;76.68;37.30;;;;;;;10.81;65.46;100291.91;5063030;28;20029;-88
2021/11/04 10:40:53;;;;;;;59.95;31.48;;;;;;;10.76;65.96;100282.94;5061076;28;20916;-87
2021/11/04 10:43:21;;;;;;;47.80;23.83;;;;;;;10.75;66.14;100286.78;5061499;28;20133;-88
2021/11/04 10:46:12;;;;;;;37.55;16.70;;;;;;;10.75;65.47;100292.25;5026049;28;20047;-74
2021/11/04 10:48:44;;;;;;;72.90;33.47;;;;;;;10.75;66.43;100301.28;5060077;28;20037;-72
2021/11/04 10:51:34;;;;;;;60.10;25.05;;;;;;;10.94;66.03;100309.53;5059682;28;20118;-76
2021/11/04 10:54:03;;;;;;;57.42;23.38;;;;;;;11.00;65.46;100305.66;5058327;28;20172;-75
2021/11/04 10:56:31;;;;;;;42.35;18.02;;;;;;;10.96;65.32;100298.31;5068260;28;20086;-86
2021/11/04 10:59:02;;;;;;;44.40;19.90;;;;;;;10.95;65.29;100305.69;5074620;28;20056;-90
2021/11/04 11:01:41;;;;;;;47.42;18.65;;;;;;;11.04;64.96;100306.69;5074092;28;20045;-89
2021/11/04 11:04:13;;;;;;;76.60;35.33;;;;;;;11.17;64.35;100323.53;5076641;28;20108;-86
2021/11/04 11:06:43;;;;;;;73.15;33.80;;;;;;;11.24;64.54;100321.25;5067806;28;20536;-87
2021/11/04 11:09:13;;;;;;;61.08;29.25;;;;;;;11.29;63.96;100329.38;5078927;28;20044;-83
2021/11/04 11:11:43;;;;;;;58.05;28.00;;;;;;;11.28;64.13;100328.56;5079864;28;20036;-78
2021/11/04 11:14:09;;;;;;;43.50;20.10;;;;;;;11.27;63.61;100334.34;5074647;28;20059;-84
2021/11/04 11:16:39;;;;;;;30.40;14.50;;;;;;;11.23;64.34;100334.13;5073441;28;20028;-79
2021/11/04 11:19:07;;;;;;;57.15;23.05;;;;;;;11.31;64.29;100338.13;5071973;28;20456;-78
2021/11/04 11:21:42;;;;;;;46.38;20.92;;;;;;;11.33;64.00;100338.66;5073210;28;20067;-79
2021/11/04 11:24:14;;;;;;;67.45;32.85;;;;;;;11.48;64.62;100334.91;5073580;28;20036;-91
2021/11/04 11:26:44;;;;;;;74.35;33.67;;;;;;;11.37;63.25;100347.09;5092527;28;20032;-78
2021/11/04 11:29:12;;;;;;;53.33;24.45;;;;;;;11.29;63.14;100343.91;5075486;28;20048;-82